Time,TemperatureF,DewpointF,PressureIn,WindDirection,WindDirectionDegrees,WindSpeedMPH,WindSpeedGustMPH,Humidity,HourlyPrecipIn,Conditions,Clouds,dailyrainin,SoftwareType,DateUTC
2013-02-01 00:03:00,45.8,26.0,30.27,WSW,247,0.0,0.0,47,0.00,,,0.00,weatherlink.com 1.10,2013-02-01 06:03:00,
2013-02-01 00:18:00,45.3,27.0,30.27,WSW,247,0.0,1.0,49,0.00,,,0.00,weatherlink.com 1.10,2013-02-01 06:18:00,
2013-02-01 00:33:00,44.9,28.0,30.26,WSW,247,2.0,3.0,51,0.00,,,0.00,weatherlink.com 1.10,2013-02-01 06:33:00,
2013-02-01 00:48:00,44.9,28.0,30.27,WSW,247,1.0,3.0,52,0.00,,,0.00,weatherlink.com 1.10,2013-02-01 06:48:00,
2013-02-01 01:03:00,45.0,29.0,30.27,WSW,247,0.0,4.0,53,0.00,,,0.00,weatherlink.com 1.10,2013-02-01 07:03:00,
2013-02-01 01:18:00,43.6,28.0,30.27,WSW,247,0.0,2.0,54,0.00,,,0.00,weatherlink.com 1.10,2013-02-01 07:18:00,
2013-02-01 01:33:00,42.9,29.0,30.28,WSW,247,2.0,3.0,59,0.00,,,0.00,weatherlink.com 1.10,2013-02-01 07:33:00,
2013-02-01 01:48:00,41.8,29.0,30.30,NNW,330,5.0,9.0,60,0.00,,,0.00,weatherlink.com 1.10,2013-02-01 07:48:00,
2013-02-01 02:03:00,42.4,28.0,30.30,NNW,331,3.0,7.0,58,0.00,,,0.00,weatherlink.com 1.10,2013-02-01 08:03:00,
2013-02-01 02:18:00,43.4,28.0,30.29,North,353,4.0,7.0,55,0.00,,,0.00,weatherlink.com 1.10,2013-02-01 08:18:00,
2013-02-01 02:33:00,43.3,28.0,30.30,NNW,345,5.0,6.0,55,0.00,,,0.00,weatherlink.com 1.10,2013-02-01 08:33:00,
2013-02-01 02:48:00,45.3,27.0,30.30,NNW,345,6.0,10.0,50,0.00,,,0.00,weatherlink.com 1.10,2013-02-01 08:48:00,
2013-02-01 03:03:00,45.9,29.0,30.32,NNE,16,6.0,10.0,51,0.00,,,0.00,weatherlink.com 1.10,2013-02-01 09:03:00,
2013-02-01 03:18:00,45.6,30.0,30.31,NE,37,5.0,8.0,54,0.00,,,0.00,weatherlink.com 1.10,2013-02-01 09:18:00,
2013-02-01 03:33:00,45.5,29.0,30.32,North,11,5.0,6.0,53,0.00,,,0.00,weatherlink.com 1.10,2013-02-01 09:33:00,
2013-02-01 04:03:00,45.3,31.0,30.32,NNE,23,5.0,9.0,57,0.00,,,0.00,weatherlink.com 1.10,2013-02-01 10:03:00,
2013-02-01 04:19:00,44.7,31.0,30.31,NNE,23,0.0,6.0,59,0.00,,,0.00,weatherlink.com 1.10,2013-02-01 10:19:00,
2013-02-01 04:34:00,43.9,31.0,30.31,NNE,23,2.0,5.0,61,0.00,,,0.00,weatherlink.com 1.10,2013-02-01 10:34:00,
2013-02-01 04:49:00,43.9,31.0,30.32,NE,43,4.0,8.0,61,0.00,,,0.00,weatherlink.com 1.10,2013-02-01 10:49:00,
2013-02-01 05:03:00,43.1,31.0,30.31,NNE,28,4.0,8.0,62,0.00,,,0.00,weatherlink.com 1.10,2013-02-01 11:03:00,
2013-02-01 05:19:00,42.5,31.0,30.31,NNE,33,5.0,7.0,63,0.00,,,0.00,weatherlink.com 1.10,2013-02-01 11:19:00,
2013-02-01 05:33:00,41.6,30.0,30.32,NNE,33,2.0,4.0,64,0.00,,,0.00,weatherlink.com 1.10,2013-02-01 11:33:00,
2013-02-01 05:49:00,41.5,30.0,30.33,North,5,0.0,7.0,65,0.00,,,0.00,weatherlink.com 1.10,2013-02-01 11:49:00,
2013-02-01 06:04:00,40.6,30.0,30.33,NNE,12,3.0,5.0,66,0.00,,,0.00,weatherlink.com 1.10,2013-02-01 12:04:00,
2013-02-01 06:19:00,39.0,30.0,30.34,NNE,12,0.0,1.0,69,0.00,,,0.00,weatherlink.com 1.10,2013-02-01 12:19:00,
2013-02-01 06:34:00,37.9,30.0,30.35,NNE,12,0.0,0.0,72,0.00,,,0.00,weatherlink.com 1.10,2013-02-01 12:34:00,
2013-02-01 06:49:00,37.0,29.0,30.35,NNE,12,1.0,2.0,74,0.00,,,0.00,weatherlink.com 1.10,2013-02-01 12:49:00,
2013-02-01 07:19:00,36.7,29.0,30.36,NNE,12,1.0,4.0,75,0.00,,,0.00,weatherlink.com 1.10,2013-02-01 13:19:00,
2013-02-01 07:34:00,36.7,29.0,30.36,NNE,33,2.0,6.0,75,0.00,,,0.00,weatherlink.com 1.10,2013-02-01 13:34:00,
2013-02-01 07:49:00,37.1,29.0,30.36,NNE,33,2.0,3.0,73,0.00,,,0.00,weatherlink.com 1.10,2013-02-01 13:49:00,
2013-02-01 08:04:00,39.2,30.0,30.36,NNE,33,3.0,4.0,70,0.00,,,0.00,weatherlink.com 1.10,2013-02-01 14:04:00,
2013-02-01 08:19:00,40.7,30.0,30.36,NNE,33,4.0,5.0,65,0.00,,,0.00,weatherlink.com 1.10,2013-02-01 14:19:00,
2013-02-01 08:34:00,40.4,30.0,30.36,NNE,33,0.0,3.0,66,0.00,,,0.00,weatherlink.com 1.10,2013-02-01 14:34:00,
2013-02-01 08:49:00,41.8,30.0,30.36,NNE,15,1.0,6.0,63,0.00,,,0.00,weatherlink.com 1.10,2013-02-01 14:49:00,
2013-02-01 09:04:00,42.2,30.0,30.37,NNE,33,2.0,5.0,62,0.00,,,0.00,weatherlink.com 1.10,2013-02-01 15:04:00,
2013-02-01 09:19:00,43.4,30.0,30.37,NE,37,4.0,5.0,60,0.00,,,0.00,weatherlink.com 1.10,2013-02-01 15:19:00,
2013-02-01 09:34:00,44.8,31.0,30.37,NE,47,4.0,6.0,58,0.00,,,0.00,weatherlink.com 1.10,2013-02-01 15:34:00,
2013-02-01 09:49:00,45.6,30.0,30.36,East,81,0.0,7.0,55,0.00,,,0.00,weatherlink.com 1.10,2013-02-01 15:49:00,
2013-02-01 10:04:00,45.3,31.0,30.37,ENE,73,1.0,7.0,57,0.00,,,0.00,weatherlink.com 1.10,2013-02-01 16:04:00,
2013-02-01 10:19:00,46.3,30.0,30.37,ENE,60,2.0,6.0,54,0.00,,,0.00,weatherlink.com 1.10,2013-02-01 16:19:00,
2013-02-01 10:34:00,47.0,30.0,30.36,ENE,60,4.0,5.0,53,0.00,,,0.00,weatherlink.com 1.10,2013-02-01 16:34:00,
2013-02-01 10:49:00,47.9,31.0,30.35,East,81,2.0,5.0,52,0.00,,,0.00,weatherlink.com 1.10,2013-02-01 16:49:00,
2013-02-01 11:04:00,49.5,31.0,30.35,East,85,3.0,5.0,49,0.00,,,0.00,weatherlink.com 1.10,2013-02-01 17:04:00,
2013-02-01 11:19:00,51.5,32.0,30.34,ENE,71,4.0,7.0,48,0.00,,,0.00,weatherlink.com 1.10,2013-02-01 17:19:00,
2013-02-01 11:34:00,52.3,33.0,30.34,East,81,3.0,5.0,48,0.00,,,0.00,weatherlink.com 1.10,2013-02-01 17:34:00,
2013-02-01 11:49:00,53.8,33.0,30.33,SE,124,3.0,8.0,46,0.00,,,0.00,weatherlink.com 1.10,2013-02-01 17:49:00,
2013-02-01 12:04:00,55.8,34.0,30.31,SE,141,3.0,8.0,44,0.00,,,0.00,weatherlink.com 1.10,2013-02-01 18:04:00,
2013-02-01 12:19:00,57.8,35.0,30.30,SE,135,5.0,8.0,42,0.00,,,0.00,weatherlink.com 1.10,2013-02-01 18:19:00,
2013-02-01 12:34:00,58.0,34.0,30.30,SE,144,0.0,8.0,41,0.00,,,0.00,weatherlink.com 1.10,2013-02-01 18:34:00,
2013-02-01 12:50:00,59.9,35.0,30.29,SE,137,2.0,8.0,40,0.00,,,0.00,weatherlink.com 1.10,2013-02-01 18:50:00,
2013-02-01 13:04:00,61.4,37.0,30.28,SE,140,5.0,8.0,41,0.00,,,0.00,weatherlink.com 1.10,2013-02-01 19:04:00,
2013-02-01 13:20:00,62.3,38.0,30.27,SE,144,3.0,8.0,40,0.00,,,0.00,weatherlink.com 1.10,2013-02-01 19:20:00,
2013-02-01 13:35:00,63.6,37.0,30.26,SSE,154,3.0,6.0,37,0.00,,,0.00,weatherlink.com 1.10,2013-02-01 19:35:00,
2013-02-01 13:50:00,64.3,37.0,30.24,SE,126,3.0,11.0,37,0.00,,,0.00,weatherlink.com 1.10,2013-02-01 19:50:00,
2013-02-01 14:05:00,65.9,39.0,30.24,SE,141,7.0,11.0,37,0.00,,,0.00,weatherlink.com 1.10,2013-02-01 20:05:00,
2013-02-01 14:20:00,66.1,38.0,30.23,South,177,5.0,7.0,36,0.00,,,0.00,weatherlink.com 1.10,2013-02-01 20:20:00,
2013-02-01 14:35:00,67.8,38.0,30.22,SE,144,5.0,18.0,33,0.00,,,0.00,weatherlink.com 1.10,2013-02-01 20:35:00,
2013-02-01 14:50:00,69.2,38.0,30.21,SSW,208,3.0,18.0,32,0.00,,,0.00,weatherlink.com 1.10,2013-02-01 20:50:00,
2013-02-01 15:05:00,69.8,39.0,30.20,SE,141,3.0,16.0,32,0.00,,,0.00,weatherlink.com 1.10,2013-02-01 21:05:00,
2013-02-01 15:20:00,69.7,38.0,30.20,South,189,5.0,15.0,32,0.00,,,0.00,weatherlink.com 1.10,2013-02-01 21:20:00,
2013-02-01 15:35:00,70.2,37.0,30.20,WSW,237,9.0,22.0,30,0.00,,,0.00,weatherlink.com 1.10,2013-02-01 21:35:00,
2013-02-01 15:50:00,70.0,35.0,30.19,South,185,6.0,17.0,28,0.00,,,0.00,weatherlink.com 1.10,2013-02-01 21:50:00,
2013-02-01 16:05:00,69.5,35.0,30.19,South,189,8.0,20.0,28,0.00,,,0.00,weatherlink.com 1.10,2013-02-01 22:05:00,
2013-02-01 16:20:00,68.9,34.0,30.19,SSW,200,13.0,18.0,28,0.00,,,0.00,weatherlink.com 1.10,2013-02-01 22:20:00,
2013-02-01 16:35:00,68.7,35.0,30.18,SSW,195,6.0,18.0,29,0.00,,,0.00,weatherlink.com 1.10,2013-02-01 22:35:00,
2013-02-01 17:05:00,67.6,37.0,30.17,SSW,199,8.0,17.0,32,0.00,,,0.00,weatherlink.com 1.10,2013-02-01 23:05:00,
2013-02-01 17:21:00,67.0,36.0,30.16,SSW,201,11.0,16.0,32,0.00,,,0.00,weatherlink.com 1.10,2013-02-01 23:21:00,
2013-02-01 17:35:00,66.4,37.0,30.16,SSE,149,5.0,13.0,34,0.00,,,0.00,weatherlink.com 1.10,2013-02-01 23:35:00,
2013-02-01 17:50:00,65.1,37.0,30.16,SSE,166,5.0,11.0,35,0.00,,,0.00,weatherlink.com 1.10,2013-02-01 23:50:00,
2013-02-01 18:06:00,64.3,36.0,30.16,SSW,195,8.0,11.0,35,0.00,,,0.00,weatherlink.com 1.10,2013-02-02 00:06:00,
2013-02-01 18:20:00,62.5,36.0,30.16,SSW,195,4.0,7.0,37,0.00,,,0.00,weatherlink.com 1.10,2013-02-02 00:20:00,
2013-02-01 18:50:00,60.1,36.0,30.16,South,190,5.0,6.0,41,0.00,,,0.00,weatherlink.com 1.10,2013-02-02 00:50:00,
2013-02-01 19:05:00,59.3,36.0,30.16,South,185,4.0,8.0,42,0.00,,,0.00,weatherlink.com 1.10,2013-02-02 01:05:00,
2013-02-01 19:20:00,57.9,36.0,30.17,South,187,3.0,5.0,44,0.00,,,0.00,weatherlink.com 1.10,2013-02-02 01:20:00,
2013-02-01 19:35:00,57.8,36.0,30.17,South,185,4.0,7.0,45,0.00,,,0.00,weatherlink.com 1.10,2013-02-02 01:35:00,
2013-02-01 19:50:00,57.3,36.0,30.18,South,189,4.0,7.0,45,0.00,,,0.00,weatherlink.com 1.10,2013-02-02 01:50:00,
2013-02-01 20:20:00,56.7,36.0,30.17,SSW,208,5.0,8.0,47,0.00,,,0.00,weatherlink.com 1.10,2013-02-02 02:20:00,
2013-02-01 20:36:00,56.3,36.0,30.17,SSW,192,6.0,10.0,47,0.00,,,0.00,weatherlink.com 1.10,2013-02-02 02:36:00,
2013-02-01 20:51:00,56.2,37.0,30.18,South,187,6.0,12.0,48,0.00,,,0.00,weatherlink.com 1.10,2013-02-02 02:51:00,
2013-02-01 21:05:00,55.6,37.0,30.18,South,172,11.0,11.0,49,0.00,,,0.00,weatherlink.com 1.10,2013-02-02 03:05:00,
2013-02-01 21:20:00,55.9,36.0,30.18,South,175,7.0,18.0,48,0.00,,,0.00,weatherlink.com 1.10,2013-02-02 03:20:00,
2013-02-01 21:50:00,54.9,36.0,30.18,South,185,10.0,14.0,49,0.00,,,0.00,weatherlink.com 1.10,2013-02-02 03:50:00,
2013-02-01 22:05:00,54.8,36.0,30.18,SW,215,11.0,17.0,49,0.00,,,0.00,weatherlink.com 1.10,2013-02-02 04:05:00,
2013-02-01 22:20:00,54.8,36.0,30.18,South,174,7.0,13.0,49,0.00,,,0.00,weatherlink.com 1.10,2013-02-02 04:20:00,
2013-02-01 22:36:00,54.4,36.0,30.19,SSW,195,8.0,11.0,50,0.00,,,0.00,weatherlink.com 1.10,2013-02-02 04:36:00,
2013-02-01 22:51:00,54.4,37.0,30.19,South,171,7.0,14.0,52,0.00,,,0.00,weatherlink.com 1.10,2013-02-02 04:51:00,
2013-02-01 23:06:00,53.9,37.0,30.19,South,181,7.0,12.0,54,0.00,,,0.00,weatherlink.com 1.10,2013-02-02 05:06:00,
2013-02-01 23:21:00,54.3,39.0,30.19,South,183,5.0,16.0,56,0.00,,,0.00,weatherlink.com 1.10,2013-02-02 05:21:00,
2013-02-01 23:36:00,54.5,39.0,30.18,SSW,196,7.0,16.0,57,0.00,,,0.00,weatherlink.com 1.10,2013-02-02 05:36:00,
2013-02-01 23:51:00,54.2,40.0,30.19,SSW,210,9.0,12.0,59,0.00,,,0.00,weatherlink.com 1.10,2013-02-02 05:51:00,